Time;durP1;ratioP1;P1;durP2;ratioP2;P2;SDS_P1;SDS_P2;PMS_P1;PMS_P2;Temp;Humidity;BMP_temperature;BMP_pressure;BME280_temperature;BME280_humidity;BME280_pressure;Samples;Min_cycle;Max_cycle;Signal;HPM_P1;HPM_P2
2021/11/11 00:00:57;;;;;;;10.43;6.43;;;2.80;99.90;;;;;;5034047;28;20189;-63
2021/11/11 00:03:23;;;;;;;10.20;7.60;;;2.70;99.90;;;;;;5033938;28;20215;-63
2021/11/11 00:05:49;;;;;;;9.73;7.23;;;2.60;99.90;;;;;;5033837;28;20240;-62
2021/11/11 00:08:15;;;;;;;7.43;6.73;;;2.60;99.90;;;;;;5033304;28;20256;-63
2021/11/11 00:10:42;;;;;;;8.57;7.50;;;2.60;99.90;;;;;;5033833;28;20304;-63
2021/11/11 00:13:07;;;;;;;8.90;7.05;;;2.50;99.90;;;;;;5033700;28;20227;-64
2021/11/11 00:15:33;;;;;;;13.33;7.50;;;2.50;99.90;;;;;;5033372;28;20256;-61
2021/11/11 00:17:59;;;;;;;10.80;8.50;;;2.50;99.90;;;;;;5033359;28;20436;-63
2021/11/11 00:20:27;;;;;;;10.97;7.80;;;2.50;99.90;;;;;;5033622;28;20178;-62
2021/11/11 00:22:54;;;;;;;9.75;7.28;;;2.50;99.90;;;;;;5033447;28;20958;-64
2021/11/11 00:25:22;;;;;;;10.85;8.68;;;2.50;99.90;;;;;;5033730;28;20215;-63
2021/11/11 00:27:48;;;;;;;8.27;7.47;;;2.40;99.90;;;;;;5033014;28;20194;-63
2021/11/11 00:30:17;;;;;;;16.48;7.53;;;2.40;99.90;;;;;;5033626;28;20170;-62
2021/11/11 00:32:43;;;;;;;10.32;6.53;;;2.40;99.90;;;;;;5033509;28;20178;-63
2021/11/11 00:35:16;;;;;;;9.98;7.35;;;2.40;99.90;;;;;;5033611;28;20185;-62
2021/11/11 00:37:42;;;;;;;9.93;8.13;;;2.30;99.90;;;;;;5032859;28;20194;-63
2021/11/11 00:40:08;;;;;;;11.20;7.90;;;2.30;99.90;;;;;;5032642;28;20224;-64
2021/11/11 00:42:34;;;;;;;15.00;9.82;;;2.20;99.90;;;;;;5033304;28;20425;-64
2021/11/11 00:45:00;;;;;;;7.20;6.03;;;2.20;99.90;;;;;;5033871;28;20174;-63
2021/11/11 00:47:26;;;;;;;10.75;9.18;;;2.20;99.90;;;;;;5033237;28;20417;-64
2021/11/11 00:49:51;;;;;;;11.50;7.00;;;2.20;99.90;;;;;;5033463;28;20170;-63
2021/11/11 00:52:17;;;;;;;10.50;7.97;;;2.20;99.90;;;;;;5033804;28;20508;-62
2021/11/11 00:54:43;;;;;;;8.33;7.70;;;2.10;99.90;;;;;;5033269;28;20221;-64
2021/11/11 00:57:10;;;;;;;8.75;5.82;;;2.10;99.90;;;;;;5033735;28;20193;-62
2021/11/11 00:59:36;;;;;;;10.63;7.47;;;2.10;99.90;;;;;;5032970;28;20186;-63
2021/11/11 01:02:07;;;;;;;10.50;6.90;;;2.10;99.90;;;;;;5033601;28;20186;-62
2021/11/11 01:04:33;;;;;;;10.70;7.78;;;2.10;99.90;;;;;;5033242;28;20917;-63
2021/11/11 01:06:58;;;;;;;12.60;5.57;;;2.10;99.90;;;;;;5032982;28;20174;-63
2021/11/11 01:09:24;;;;;;;6.57;5.43;;;2.10;99.90;;;;;;5032822;28;20427;-63
2021/11/11 01:11:50;;;;;;;11.23;6.40;;;2.10;99.90;;;;;;5032930;28;20199;-64
2021/11/11 01:14:16;;;;;;;11.97;7.00;;;2.10;99.90;;;;;;5032984;28;20213;-64
2021/11/11 01:16:42;;;;;;;12.43;7.82;;;2.00;99.90;;;;;;5032722;28;20614;-62
2021/11/11 01:19:08;;;;;;;9.20;7.80;;;2.00;99.90;;;;;;5033068;28;20273;-63
2021/11/11 01:21:34;;;;;;;9.33;8.40;;;1.90;99.90;;;;;;5033013;28;20420;-64
2021/11/11 01:23:59;;;;;;;8.90;7.53;;;1.90;99.90;;;;;;5032902;28;20233;-64
2021/11/11 01:26:26;;;;;;;7.80;6.10;;;1.80;99.90;;;;;;5032568;28;20465;-63
2021/11/11 01:28:52;;;;;;;14.73;9.27;;;1.80;99.90;;;;;;5032705;28;20272;-62
2021/11/11 01:31:17;;;;;;;7.00;6.30;;;1.70;99.90;;;;;;5032753;28;20170;-64
2021/11/11 01:33:45;;;;;;;9.10;7.53;;;1.70;99.90;;;;;;5032935;28;20178;-62
2021/11/11 01:36:10;;;;;;;8.13;7.30;;;1.60;99.90;;;;;;5032864;28;20193;-62
2021/11/11 01:38:36;;;;;;;6.20;5.63;;;1.60;99.90;;;;;;5032387;28;20198;-64
2021/11/11 01:41:03;;;;;;;13.57;9.07;;;1.50;99.90;;;;;;5032718;28;20915;-64
2021/11/11 01:43:29;;;;;;;9.18;8.18;;;1.50;99.90;;;;;;5032858;28;20209;-63
2021/11/11 01:45:55;;;;;;;11.70;8.10;;;1.50;99.90;;;;;;5032868;28;20170;-63
2021/11/11 01:48:21;;;;;;;17.73;7.70;;;1.50;99.90;;;;;;5031057;28;20670;-64
2021/11/11 01:50:47;;;;;;;10.17;8.10;;;1.50;99.90;;;;;;5032943;28;20171;-63
2021/11/11 01:53:15;;;;;;;13.13;7.13;;;1.50;99.90;;;;;;5036454;28;20538;-64
2021/11/11 01:55:42;;;;;;;5.63;5.20;;;1.60;99.90;;;;;;5036458;28;20170;-62
2021/11/11 01:58:08;;;;;;;7.88;6.45;;;1.50;99.90;;;;;;5035952;28;20193;-62
2021/11/11 02:00:39;;;;;;;10.60;6.07;;;1.60;99.90;;;;;;5036479;28;20177;-62
2021/11/11 02:03:06;;;;;;;6.05;5.55;;;1.70;99.90;;;;;;5036175;28;20198;-62
2021/11/11 02:05:33;;;;;;;9.38;6.90;;;1.60;99.90;;;;;;5036250;28;20182;-64
2021/11/11 02:07:59;;;;;;;6.20;5.60;;;1.70;99.90;;;;;;5035812;28;20197;-64
2021/11/11 02:10:26;;;;;;;6.57;6.03;;;1.60;99.90;;;;;;5036037;28;20170;-62
2021/11/11 02:12:52;;;;;;;7.55;6.35;;;1.50;99.90;;;;;;5036108;28;20178;-63
2021/11/11 02:15:19;;;;;;;8.85;6.60;;;1.50;99.90;;;;;;5035938;28;20200;-63
2021/11/11 02:17:45;;;;;;;5.63;5.07;;;1.40;99.90;;;;;;5035693;28;20224;-62
2021/11/11 02:20:18;;;;;;;8.38;6.82;;;1.30;99.90;;;;;;5035944;28;20174;-65
2021/11/11 02:22:44;;;;;;;6.50;5.75;;;1.30;99.90;;;;;;5035854;28;20601;-62
2021/11/11 02:25:12;;;;;;;7.30;6.70;;;1.30;99.90;;;;;;5035917;28;20184;-62
2021/11/11 02:27:39;;;;;;;5.60;5.10;;;1.20;99.90;;;;;;5035412;28;20281;-63
2021/11/11 02:30:06;;;;;;;6.10;5.50;;;1.20;99.90;;;;;;5035607;28;20519;-63
2021/11/11 02:32:33;;;;;;;5.90;5.35;;;1.20;99.90;;;;;;5035718;28;20264;-63
2021/11/11 02:34:59;;;;;;;8.57;6.47;;;1.30;99.90;;;;;;5036212;28;20184;-62
2021/11/11 02:37:31;;;;;;;10.30;6.80;;;1.30;99.90;;;;;;5035275;28;20166;-63
2021/11/11 02:39:59;;;;;;;7.53;5.65;;;1.30;99.90;;;;;;5035426;28;20197;-63
2021/11/11 02:42:26;;;;;;;7.10;6.10;;;1.20;99.90;;;;;;5035230;28;20175;-62
2021/11/11 02:44:56;;;;;;;7.53;6.70;;;1.20;99.90;;;;;;5035661;28;20204;-64
2021/11/11 02:47:21;;;;;;;8.40;5.18;;;1.20;99.90;;;;;;5034991;28;20170;-63
2021/11/11 02:49:47;;;;;;;7.40;5.50;;;1.20;99.90;;;;;;5035523;28;20645;-64
2021/11/11 02:52:13;;;;;;;6.90;5.60;;;1.20;99.90;;;;;;5035416;28;20581;-63
2021/11/11 02:54:40;;;;;;;7.97;4.90;;;1.20;99.90;;;;;;5035116;28;20221;-64
2021/11/11 02:57:27;;;;;;;9.63;5.82;;;1.20;99.90;;;;;;5034853;28;20177;-63
2021/11/11 02:59:56;;;;;;;5.65;4.70;;;1.20;99.90;;;;;;5035221;28;20181;-62
2021/11/11 03:02:24;;;;;;;7.68;6.57;;;1.20;99.90;;;;;;5034651;28;20166;-61
2021/11/11 03:04:49;;;;;;;5.20;4.70;;;1.20;99.90;;;;;;5035352;28;20689;-63
2021/11/11 03:07:15;;;;;;;5.27;4.77;;;1.20;99.90;;;;;;5034533;28;20181;-61
2021/11/11 03:09:43;;;;;;;8.70;4.80;;;1.30;99.90;;;;;;5035126;28;20178;-64
2021/11/11 03:12:09;;;;;;;27.23;7.70;;;1.30;99.90;;;;;;5034991;28;20409;-63
2021/11/11 03:14:35;;;;;;;5.68;5.28;;;1.30;99.90;;;;;;5017316;28;20201;-62
2021/11/11 03:17:04;;;;;;;7.80;5.40;;;1.30;99.90;;;;;;5034446;28;20220;-63
2021/11/11 03:19:33;;;;;;;4.85;4.45;;;1.40;99.90;;;;;;5034802;28;20433;-65
2021/11/11 03:22:02;;;;;;;5.13;4.25;;;1.40;99.90;;;;;;5033532;28;20665;-63
2021/11/11 03:24:28;;;;;;;12.38;5.70;;;1.40;99.90;;;;;;5034626;28;20283;-64
2021/11/11 03:26:54;;;;;;;9.13;7.20;;;1.50;99.90;;;;;;5034214;28;20170;-63
2021/11/11 03:29:19;;;;;;;7.00;4.90;;;1.50;99.90;;;;;;5034450;28;20196;-64
2021/11/11 03:31:45;;;;;;;7.90;5.63;;;1.50;99.90;;;;;;5034629;28;20692;-63
2021/11/11 03:34:10;;;;;;;6.37;5.40;;;1.50;99.90;;;;;;5034455;28;20170;-63
2021/11/11 03:36:36;;;;;;;12.97;5.87;;;1.50;99.90;;;;;;5032969;28;20174;-62
2021/11/11 03:39:04;;;;;;;12.00;5.70;;;1.50;99.90;;;;;;5034385;28;20197;-62
2021/11/11 03:41:30;;;;;;;16.50;6.53;;;1.60;99.90;;;;;;5034332;28;20506;-62
2021/11/11 03:43:56;;;;;;;6.40;5.40;;;1.50;99.90;;;;;;5034314;28;20733;-63
2021/11/11 03:46:21;;;;;;;6.85;6.35;;;1.50;99.90;;;;;;5034068;28;20585;-63
2021/11/11 03:48:48;;;;;;;7.77;4.90;;;1.50;99.90;;;;;;5034177;28;20190;-63
2021/11/11 03:51:14;;;;;;;11.63;5.85;;;1.50;99.90;;;;;;5034164;28;20594;-62
2021/11/11 03:53:40;;;;;;;16.10;7.80;;;1.50;99.90;;;;;;5034096;28;20606;-63
2021/11/11 03:56:05;;;;;;;6.57;5.93;;;1.60;99.90;;;;;;5034067;28;20236;-63
2021/11/11 03:58:31;;;;;;;12.43;5.90;;;1.60;99.90;;;;;;5033862;28;20196;-63
2021/11/11 04:00:57;;;;;;;5.30;4.30;;;1.60;99.90;;;;;;5033963;28;20212;-62
2021/11/11 04:03:22;;;;;;;9.57;6.47;;;1.70;99.90;;;;;;5033756;28;20198;-63
2021/11/11 04:05:48;;;;;;;7.13;5.63;;;1.70;99.90;;;;;;5033921;28;20166;-64
2021/11/11 04:08:14;;;;;;;8.13;6.37;;;1.80;99.90;;;;;;5033566;28;20194;-63
2021/11/11 04:10:39;;;;;;;6.60;5.10;;;1.90;99.90;;;;;;5033831;28;20209;-64
2021/11/11 04:13:07;;;;;;;6.87;6.10;;;1.90;99.90;;;;;;5033798;28;20249;-64
2021/11/11 04:15:34;;;;;;;8.75;6.10;;;2.00;99.90;;;;;;5033507;28;20578;-63
2021/11/11 04:18:00;;;;;;;7.75;4.80;;;2.00;99.90;;;;;;5033214;28;20198;-62
2021/11/11 04:20:26;;;;;;;6.73;6.03;;;2.10;99.90;;;;;;5033759;28;20177;-63
2021/11/11 04:22:53;;;;;;;5.70;5.20;;;2.10;99.90;;;;;;5033592;28;20201;-63
2021/11/11 04:25:38;;;;;;;9.65;6.55;;;2.20;99.90;;;;;;5033466;28;20635;-64
2021/11/11 04:28:05;;;;;;;4.82;4.40;;;2.10;99.90;;;;;;5033203;28;20185;-62
2021/11/11 04:30:33;;;;;;;8.93;6.03;;;2.10;99.90;;;;;;5033651;28;20174;-62
2021/11/11 04:33:00;;;;;;;6.88;5.32;;;2.10;99.90;;;;;;5033332;28;20178;-63
2021/11/11 04:35:27;;;;;;;6.97;5.53;;;2.10;99.90;;;;;;5033418;28;20261;-62
2021/11/11 04:43:24;;;;;;;8.32;7.18;;;2.00;99.90;;;;;;5033305;28;20865;-63
2021/11/11 04:45:57;;;;;;;7.55;6.85;;;2.00;99.90;;;;;;5033147;28;20198;-63
2021/11/11 05:04:57;;;;;;;8.23;5.18;;;2.00;99.90;;;;;;5033463;28;20221;-63
2021/11/11 05:07:23;;;;;;;5.30;4.07;;;2.00;99.90;;;;;;5032880;28;20194;-64
2021/11/11 05:09:49;;;;;;;10.80;8.07;;;2.00;99.90;;;;;;5033175;28;20174;-64
2021/11/11 05:12:15;;;;;;;7.53;4.43;;;2.10;99.90;;;;;;5032983;28;20180;-63
2021/11/11 05:14:41;;;;;;;14.02;6.85;;;2.20;99.90;;;;;;5033066;28;20201;-63
2021/11/11 05:17:07;;;;;;;6.60;5.40;;;2.20;99.90;;;;;;5032783;28;20197;-64
2021/11/11 05:19:33;;;;;;;6.03;5.43;;;2.10;99.90;;;;;;5032763;28;20190;-63
2021/11/11 05:21:59;;;;;;;4.53;4.00;;;2.10;99.90;;;;;;5033136;28;20405;-64
2021/11/11 05:24:25;;;;;;;5.20;4.70;;;2.10;99.90;;;;;;5032828;28;20449;-64
2021/11/11 05:26:50;;;;;;;8.70;5.70;;;2.20;99.90;;;;;;5034488;28;20400;-65
2021/11/11 05:29:16;;;;;;;6.90;4.70;;;2.20;99.90;;;;;;5036957;28;20232;-63
2021/11/11 05:31:42;;;;;;;6.50;5.77;;;2.20;99.90;;;;;;5036937;28;20166;-62
2021/11/11 05:34:07;;;;;;;8.87;7.37;;;2.10;99.90;;;;;;5036860;28;20170;-62
2021/11/11 05:36:33;;;;;;;4.93;4.53;;;2.10;99.90;;;;;;5036578;28;20704;-62
2021/11/11 05:38:59;;;;;;;7.60;5.57;;;2.20;99.90;;;;;;5036726;28;20724;-63
2021/11/11 05:41:24;;;;;;;8.73;7.33;;;2.20;99.90;;;;;;5036426;28;20174;-63
2021/11/11 05:43:50;;;;;;;7.97;5.90;;;2.30;99.90;;;;;;5035509;28;20558;-65
2021/11/11 05:46:16;;;;;;;4.63;3.50;;;2.20;99.90;;;;;;5036091;28;20217;-63
2021/11/11 05:48:42;;;;;;;5.90;5.40;;;2.10;99.90;;;;;;5036032;28;20610;-64
2021/11/11 05:51:07;;;;;;;7.20;5.97;;;2.10;99.90;;;;;;5035938;28;20197;-63
2021/11/11 05:53:33;;;;;;;4.90;3.50;;;2.20;99.90;;;;;;5036502;28;20170;-63
2021/11/11 05:55:59;;;;;;;10.43;5.37;;;2.10;99.90;;;;;;5036471;28;20527;-65
2021/11/11 05:58:24;;;;;;;7.57;5.80;;;2.10;99.90;;;;;;5035983;28;20197;-64
2021/11/11 06:00:50;;;;;;;5.00;4.60;;;2.00;99.90;;;;;;5036126;28;20271;-62
2021/11/11 06:03:16;;;;;;;6.33;5.37;;;2.00;99.90;;;;;;5035809;28;20205;-63
2021/11/11 06:05:42;;;;;;;8.70;6.20;;;2.00;99.90;;;;;;5035362;28;20174;-63
2021/11/11 06:08:07;;;;;;;5.03;3.60;;;2.00;99.90;;;;;;5033723;28;20428;-64
2021/11/11 06:10:34;;;;;;;5.50;4.93;;;1.90;99.90;;;;;;5033927;28;20166;-63
2021/11/11 06:12:59;;;;;;;12.63;5.15;;;1.80;99.90;;;;;;5033886;28;20178;-63
2021/11/11 06:15:25;;;;;;;5.07;4.50;;;1.80;99.90;;;;;;5033043;28;20197;-63
2021/11/11 06:17:56;;;;;;;8.73;6.17;;;1.70;99.90;;;;;;5031753;28;20198;-63
2021/11/11 06:20:30;;;;;;;9.38;6.82;;;1.70;99.90;;;;;;5034191;28;20178;-61
2021/11/11 06:22:56;;;;;;;6.65;6.00;;;1.70;99.90;;;;;;5035766;28;20205;-62
2021/11/11 06:25:22;;;;;;;13.40;7.83;;;1.80;99.90;;;;;;5035771;28;20201;-65
2021/11/11 06:27:48;;;;;;;12.68;6.35;;;1.80;99.90;;;;;;5035159;28;20421;-62
2021/11/11 06:30:14;;;;;;;6.35;5.72;;;1.80;99.90;;;;;;5035178;28;20170;-62
2021/11/11 06:32:40;;;;;;;11.53;7.33;;;1.90;99.90;;;;;;5035576;28;20174;-63
2021/11/11 06:35:07;;;;;;;9.03;7.07;;;1.90;99.90;;;;;;5036045;28;20435;-61
2021/11/11 06:37:34;;;;;;;6.55;5.95;;;1.80;99.90;;;;;;5034081;28;20198;-62
2021/11/11 06:40:00;;;;;;;9.20;5.90;;;1.80;99.90;;;;;;5035432;28;20249;-63
2021/11/11 06:42:26;;;;;;;6.37;5.27;;;1.80;99.90;;;;;;5035579;28;20642;-63
2021/11/11 06:44:51;;;;;;;8.30;7.50;;;1.80;99.90;;;;;;5035015;28;20197;-63
2021/11/11 06:47:17;;;;;;;9.63;6.30;;;1.70;99.90;;;;;;5034938;28;20508;-63
2021/11/11 06:49:43;;;;;;;8.33;7.30;;;1.70;99.90;;;;;;5035516;28;20599;-62
2021/11/11 06:52:09;;;;;;;6.30;5.77;;;1.90;99.90;;;;;;5035466;28;20253;-63
2021/11/11 06:54:35;;;;;;;5.75;4.90;;;1.90;99.90;;;;;;5035273;28;20563;-63
2021/11/11 06:57:01;;;;;;;8.17;6.23;;;1.90;99.90;;;;;;5034727;28;20652;-64
2021/11/11 06:59:26;;;;;;;6.27;5.47;;;1.90;99.90;;;;;;5034456;28;20493;-63
2021/11/11 07:01:52;;;;;;;7.20;6.50;;;1.90;99.90;;;;;;5035912;28;20182;-62
2021/11/11 07:04:18;;;;;;;11.33;6.53;;;2.00;99.90;;;;;;5035101;28;20202;-62
2021/11/11 07:06:43;;;;;;;9.30;6.87;;;1.90;99.90;;;;;;5034722;28;20174;-64
2021/11/11 07:09:09;;;;;;;8.43;6.80;;;1.90;99.90;;;;;;5035043;28;20527;-63
2021/11/11 07:11:35;;;;;;;7.17;6.57;;;2.00;99.90;;;;;;5035081;28;20181;-64
2021/11/11 07:14:00;;;;;;;9.03;4.93;;;2.00;99.90;;;;;;5034424;28;20626;-63
2021/11/11 07:16:26;;;;;;;10.73;6.57;;;2.10;99.90;;;;;;5034241;28;20189;-63
2021/11/11 07:18:52;;;;;;;10.57;8.00;;;2.10;99.90;;;;;;5034706;28;20197;-64
2021/11/11 07:21:17;;;;;;;9.33;6.60;;;2.10;99.90;;;;;;5035047;28;20260;-63
2021/11/11 07:23:43;;;;;;;12.80;5.33;;;2.10;99.90;;;;;;5034591;28;20667;-62
2021/11/11 07:26:10;;;;;;;9.65;6.13;;;2.10;99.90;;;;;;5034684;28;20198;-61
2021/11/11 07:28:36;;;;;;;8.23;6.57;;;2.20;99.90;;;;;;5034059;28;20305;-62
2021/11/11 07:31:01;;;;;;;5.90;4.67;;;2.20;99.90;;;;;;5034409;28;20201;-62
2021/11/11 07:33:27;;;;;;;8.80;5.60;;;2.20;99.90;;;;;;5034567;28;20223;-63
2021/11/11 07:35:53;;;;;;;11.33;6.27;;;2.30;99.90;;;;;;5034571;28;20181;-64
2021/11/11 07:38:19;;;;;;;9.70;8.67;;;2.40;99.90;;;;;;5033933;28;20200;-64
2021/11/11 07:40:45;;;;;;;11.50;6.53;;;2.50;99.90;;;;;;5034506;28;20178;-63
2021/11/11 07:43:11;;;;;;;9.50;7.53;;;2.50;99.90;;;;;;5033985;28;20284;-64
2021/11/11 07:45:38;;;;;;;11.65;5.97;;;2.60;99.90;;;;;;5034088;28;20638;-64
2021/11/11 07:48:04;;;;;;;7.22;6.15;;;2.70;99.90;;;;;;5033780;28;20223;-64
2021/11/11 07:50:36;;;;;;;6.33;5.77;;;2.70;99.90;;;;;;5034003;28;20183;-64
2021/11/11 07:53:03;;;;;;;8.48;7.68;;;2.70;99.90;;;;;;5034215;28;20206;-64
2021/11/11 07:55:30;;;;;;;14.80;6.45;;;2.80;99.90;;;;;;5034792;28;20185;-64
2021/11/11 07:57:57;;;;;;;12.18;7.75;;;2.90;99.90;;;;;;5033310;28;20198;-63
2021/11/11 08:00:23;;;;;;;9.63;8.18;;;2.90;99.90;;;;;;5034157;28;20597;-63
2021/11/11 08:02:48;;;;;;;10.07;7.27;;;2.90;99.90;;;;;;5033788;28;20178;-62
2021/11/11 08:05:17;;;;;;;15.67;9.07;;;3.10;99.90;;;;;;5033937;28;20174;-62
2021/11/11 08:07:44;;;;;;;13.25;7.93;;;3.10;99.90;;;;;;5033000;28;20448;-63
2021/11/11 08:10:11;;;;;;;12.20;7.72;;;3.20;99.90;;;;;;5033711;28;20197;-63
2021/11/11 08:12:36;;;;;;;14.23;8.18;;;3.20;99.90;;;;;;5033532;28;20185;-63
2021/11/11 08:15:03;;;;;;;12.67;6.23;;;3.30;99.90;;;;;;5033690;28;20661;-64
2021/11/11 08:17:29;;;;;;;14.35;8.27;;;3.40;99.90;;;;;;5033280;28;20174;-63
2021/11/11 08:19:55;;;;;;;27.60;8.53;;;3.60;99.90;;;;;;5033773;28;20170;-63
2021/11/11 08:22:25;;;;;;;9.70;8.73;;;3.70;99.90;;;;;;5033513;28;20531;-62
2021/11/11 08:24:52;;;;;;;14.52;8.13;;;3.70;99.90;;;;;;5033476;28;20209;-63
2021/11/11 08:27:19;;;;;;;8.25;6.82;;;3.70;99.90;;;;;;5033378;28;20170;-64
2021/11/11 08:29:46;;;;;;;14.18;7.75;;;3.80;99.90;;;;;;5033165;28;20174;-64
2021/11/11 08:32:13;;;;;;;12.32;8.20;;;3.90;99.90;;;;;;5033365;28;20170;-63
2021/11/11 08:34:40;;;;;;;8.55;7.65;;;4.00;99.90;;;;;;5033599;28;20193;-63
2021/11/11 08:37:06;;;;;;;11.43;8.10;;;4.10;99.90;;;;;;5031864;28;20228;-63
2021/11/11 08:39:32;;;;;;;13.43;9.38;;;4.20;99.90;;;;;;5033327;28;20678;-63
2021/11/11 08:41:58;;;;;;;9.43;8.63;;;4.20;99.90;;;;;;5032836;28;20178;-63
2021/11/11 08:44:23;;;;;;;12.20;7.67;;;4.10;99.90;;;;;;5033477;28;20206;-62
2021/11/11 08:46:50;;;;;;;13.23;9.60;;;4.10;99.90;;;;;;5032918;28;20181;-62
2021/11/11 08:49:18;;;;;;;12.80;8.00;;;4.20;99.90;;;;;;5033248;28;20208;-63
2021/11/11 08:51:44;;;;;;;10.85;8.45;;;4.40;99.90;;;;;;5033368;28;20510;-63
2021/11/11 08:54:11;;;;;;;18.05;7.20;;;4.30;99.90;;;;;;5033274;28;20171;-63
2021/11/11 08:56:38;;;;;;;11.40;9.82;;;4.30;99.90;;;;;;5032608;28;20195;-64
2021/11/11 08:59:04;;;;;;;12.52;7.90;;;4.30;99.90;;;;;;5033214;28;20194;-63
2021/11/11 09:01:31;;;;;;;8.45;7.55;;;4.40;99.90;;;;;;5032401;28;20217;-64
2021/11/11 09:03:58;;;;;;;9.52;7.93;;;4.40;99.90;;;;;;5033135;28;20208;-63
2021/11/11 09:06:23;;;;;;;9.18;7.00;;;4.30;99.90;;;;;;5033232;28;20534;-63
2021/11/11 09:08:52;;;;;;;8.40;7.57;;;4.30;99.90;;;;;;5032983;28;20197;-63
2021/11/11 09:11:19;;;;;;;9.85;8.00;;;4.20;99.90;;;;;;5033017;28;20264;-64
2021/11/11 09:13:46;;;;;;;10.40;7.03;;;4.30;99.90;;;;;;5032964;28;20265;-63
2021/11/11 09:16:12;;;;;;;9.13;7.00;;;4.30;99.90;;;;;;5032723;28;20194;-64
2021/11/11 09:18:39;;;;;;;9.52;6.95;;;4.30;99.90;;;;;;5032559;28;20241;-63
2021/11/11 09:21:09;;;;;;;11.57;8.20;;;4.30;99.90;;;;;;5032891;28;20265;-63
2021/11/11 09:23:36;;;;;;;9.15;7.70;;;4.40;99.90;;;;;;5032955;28;20596;-63
2021/11/11 09:26:04;;;;;;;11.93;8.40;;;4.60;99.90;;;;;;5032319;28;20210;-63
2021/11/11 09:28:31;;;;;;;10.45;8.15;;;4.60;99.90;;;;;;5032386;28;20561;-63
2021/11/11 09:30:57;;;;;;;9.40;8.55;;;4.70;99.90;;;;;;5032287;28;20225;-63
2021/11/11 09:33:23;;;;;;;15.50;8.60;;;4.90;99.90;;;;;;5032894;28;20164;-64
2021/11/11 09:35:53;;;;;;;13.23;8.02;;;5.30;99.90;;;;;;5032780;28;20181;-63
2021/11/11 09:38:20;;;;;;;11.85;7.38;;;5.80;99.90;;;;;;5032405;28;20200;-64
2021/11/11 09:40:46;;;;;;;11.10;8.02;;;6.30;99.90;;;;;;5032751;28;20186;-64
2021/11/11 09:43:12;;;;;;;7.17;6.40;;;7.00;99.90;;;;;;5032841;28;20208;-63
2021/11/11 09:45:38;;;;;;;8.25;7.40;;;7.50;99.90;;;;;;5032672;28;20436;-63
2021/11/11 09:48:04;;;;;;;8.63;6.93;;;8.00;99.90;;;;;;5032228;28;20275;-64
2021/11/11 09:50:30;;;;;;;9.87;7.30;;;8.50;99.90;;;;;;5032815;28;20172;-64
2021/11/11 09:52:59;;;;;;;6.97;6.23;;;9.10;99.90;;;;;;5032790;28;20423;-64
2021/11/11 10:00:56;;;;;;;11.50;9.77;;;10.50;99.90;;;;;;5033188;28;20510;-64
2021/11/11 10:03:22;;;;;;;9.97;8.33;;;10.50;99.90;;;;;;5031189;28;20484;-63
2021/11/11 10:05:49;;;;;;;10.47;9.10;;;10.20;99.90;;;;;;5032737;28;20391;-64
2021/11/11 10:08:38;;;;;;;9.90;8.03;;;10.20;99.90;;;;;;5032090;28;20399;-63
2021/11/11 10:11:13;;;;;;;10.00;9.00;;;10.10;99.90;;;;;;5032212;28;20406;-64
2021/11/11 10:13:40;;;;;;;9.77;8.33;;;10.00;99.90;;;;;;5035216;28;20516;-63
2021/11/11 10:16:16;;;;;;;17.50;11.23;;;9.90;99.90;;;;;;5035436;28;20785;-63
2021/11/11 10:18:55;;;;;;;16.20;11.20;;;9.70;99.90;;;;;;5036217;28;20442;-64
2021/11/11 10:21:39;;;;;;;11.90;9.27;;;9.50;99.90;;;;;;5036072;28;20489;-62
2021/11/11 10:24:23;;;;;;;13.30;9.73;;;9.40;99.90;;;;;;5035759;28;20998;-62
2021/11/11 10:26:53;;;;;;;14.60;9.43;;;9.70;99.90;;;;;;5035550;28;20495;-61
2021/11/11 10:29:52;;;;;;;14.20;10.47;;;9.80;99.90;;;;;;5035861;28;20443;-64
2021/11/11 10:32:39;;;;;;;13.13;9.50;;;9.40;99.90;;;;;;5016178;28;20807;-63
2021/11/11 10:35:15;;;;;;;16.20;12.00;;;9.10;99.90;;;;;;5015772;28;20399;-63
2021/11/11 10:38:02;;;;;;;19.42;11.75;;;8.70;99.90;;;;;;5015420;28;20515;-63
2021/11/11 10:40:41;;;;;;;14.27;11.13;;;8.60;99.90;;;;;;5015797;28;20175;-64
2021/11/11 10:43:10;;;;;;;15.60;11.00;;;8.70;99.90;;;;;;5014502;28;20684;-63
2021/11/11 10:45:38;;;;;;;15.65;11.20;;;8.60;99.90;;;;;;5031040;28;20232;-63
2021/11/11 10:48:08;;;;;;;19.90;11.30;;;8.90;99.90;;;;;;5034968;28;20711;-63
2021/11/11 10:50:37;;;;;;;15.57;10.67;;;9.10;99.90;;;;;;5035397;28;20187;-65
2021/11/11 10:53:06;;;;;;;14.00;11.57;;;9.20;99.90;;;;;;5035192;28;20923;-64
2021/11/11 10:55:34;;;;;;;15.48;12.00;;;9.40;99.90;;;;;;5034928;28;20271;-64
2021/11/11 10:58:06;;;;;;;13.88;11.30;;;9.50;99.90;;;;;;5034865;28;20589;-63
2021/11/11 11:00:35;;;;;;;17.10;11.25;;;9.30;99.90;;;;;;5035026;28;20321;-63
2021/11/11 11:03:07;;;;;;;13.80;10.85;;;8.90;99.90;;;;;;5034961;28;20220;-63
2021/11/11 11:06:00;;;;;;;13.52;11.88;;;8.60;99.90;;;;;;5034902;28;20178;-62
2021/11/11 11:08:37;;;;;;;12.93;10.88;;;8.30;99.90;;;;;;5025001;28;20216;-63
2021/11/11 11:11:02;;;;;;;11.45;8.43;;;8.10;99.90;;;;;;5034480;28;20645;-64
2021/11/11 11:13:32;;;;;;;16.33;10.17;;;7.90;99.90;;;;;;5032664;28;20196;-69
2021/11/11 11:16:04;;;;;;;9.13;8.23;;;7.80;99.90;;;;;;5034541;28;20209;-69
2021/11/11 11:18:36;;;;;;;10.85;8.88;;;7.70;99.90;;;;;;5033965;28;20209;-69
2021/11/11 11:21:10;;;;;;;12.82;9.27;;;7.70;99.90;;;;;;5034183;28;20178;-68
2021/11/11 11:23:41;;;;;;;12.57;10.50;;;7.60;99.90;;;;;;5033605;28;20681;-68
2021/11/11 11:26:15;;;;;;;13.05;11.10;;;7.50;99.90;;;;;;5033440;28;20547;-68
2021/11/11 11:28:50;;;;;;;13.38;10.38;;;7.40;99.90;;;;;;5028804;28;20189;-63
2021/11/11 11:31:25;;;;;;;14.73;10.07;;;7.20;99.90;;;;;;5034610;28;20519;-63
2021/11/11 11:33:51;;;;;;;12.88;9.90;;;7.10;99.90;;;;;;5033701;28;20226;-63
2021/11/11 11:36:30;;;;;;;12.52;9.27;;;7.00;99.90;;;;;;5033457;28;20556;-63
2021/11/11 11:38:55;;;;;;;13.98;10.32;;;7.00;99.90;;;;;;5034121;28;20284;-64
2021/11/11 11:41:27;;;;;;;12.50;9.57;;;7.10;99.90;;;;;;5034108;28;20198;-63
2021/11/11 11:43:53;;;;;;;14.88;10.32;;;7.00;99.90;;;;;;5033914;28;20259;-63
2021/11/11 11:46:25;;;;;;;12.95;11.50;;;7.00;99.90;;;;;;5033819;28;20256;-63
2021/11/11 11:48:51;;;;;;;15.27;10.88;;;7.20;99.90;;;;;;5033532;28;20225;-62
2021/11/11 11:51:21;;;;;;;18.70;12.20;;;7.20;99.90;;;;;;5016988;28;20220;-63
2021/11/11 11:53:51;;;;;;;18.75;12.15;;;7.30;99.90;;;;;;5017845;28;20219;-62
2021/11/11 11:56:24;;;;;;;18.60;11.50;;;7.30;99.90;;;;;;5033340;28;20522;-62
2021/11/11 11:59:11;;;;;;;16.20;11.70;;;7.30;99.90;;;;;;5033672;28;20200;-63
2021/11/11 12:02:04;;;;;;;14.32;11.15;;;7.20;99.90;;;;;;5034150;28;20516;-63
2021/11/11 12:04:59;;;;;;;13.75;11.38;;;7.20;99.90;;;;;;5033164;28;20201;-63
2021/11/11 12:10:00;;;;;;;17.92;11.52;;;7.10;99.90;;;;;;5014037;28;20595;-65
2021/11/11 12:15:20;;;;;;;13.63;10.03;;;7.00;99.90;;;;;;5018525;28;20277;-63
2021/11/11 12:18:20;;;;;;;13.00;10.18;;;6.90;99.90;;;;;;5031740;28;20452;-63
2021/11/11 12:41:19;;;;;;;22.02;11.13;;;6.30;99.90;;;;;;5031071;28;20665;-63
2021/11/11 12:44:10;;;;;;;15.40;11.48;;;6.30;99.90;;;;;;5048620;28;20206;-62
2021/11/11 12:46:46;;;;;;;15.88;11.00;;;6.40;99.90;;;;;;5035362;28;20906;-64
2021/11/11 12:49:33;;;;;;;11.75;10.50;;;6.40;99.90;;;;;;5015164;28;20335;-64
2021/11/11 12:52:14;;;;;;;18.80;10.50;;;6.30;99.90;;;;;;5033401;28;20248;-64
2021/11/11 12:54:41;;;;;;;12.77;9.52;;;6.30;99.90;;;;;;5032983;28;20179;-63
2021/11/11 12:57:07;;;;;;;11.07;8.70;;;6.30;99.90;;;;;;5035093;28;20515;-65
2021/11/11 12:59:36;;;;;;;14.00;8.70;;;6.30;99.90;;;;;;5052898;28;20201;-64
2021/11/11 13:02:06;;;;;;;11.43;9.25;;;6.30;99.90;;;;;;5050949;28;20424;-63
2021/11/11 13:04:52;;;;;;;13.73;10.73;;;6.20;99.90;;;;;;5038940;28;20191;-63
2021/11/11 13:07:31;;;;;;;16.02;11.45;;;6.20;99.90;;;;;;5052499;28;20169;-63
2021/11/11 13:10:17;;;;;;;14.60;9.05;;;6.10;99.90;;;;;;5035340;28;20253;-64
2021/11/11 13:13:10;;;;;;;10.98;8.43;;;6.00;99.90;;;;;;5033077;28;20170;-63
2021/11/11 13:15:42;;;;;;;14.82;10.52;;;6.10;99.90;;;;;;5033039;28;20194;-63
2021/11/11 13:18:09;;;;;;;17.10;10.25;;;6.10;99.90;;;;;;5031454;28;20267;-63
2021/11/11 13:20:47;;;;;;;13.80;10.30;;;6.10;99.90;;;;;;5033005;28;20259;-64
2021/11/11 13:23:41;;;;;;;15.05;9.38;;;6.10;99.90;;;;;;5032530;28;20196;-63
2021/11/11 15:57:31;;;;;;;17.38;10.80;;;4.10;99.90;;;;;;5034806;28;20239;-63
2021/11/11 16:24:30;;;;;;;17.60;12.27;;;3.80;99.90;;;;;;5033705;28;20745;-63
2021/11/11 16:26:59;;;;;;;15.52;10.60;;;3.90;99.90;;;;;;5032993;28;20257;-63
2021/11/11 16:29:26;;;;;;;20.90;12.38;;;3.90;99.90;;;;;;5033324;28;20220;-62
2021/11/11 16:31:53;;;;;;;28.80;17.40;;;3.90;99.90;;;;;;5033345;28;20178;-63
2021/11/11 16:34:20;;;;;;;21.48;13.02;;;4.00;99.90;;;;;;5033607;28;20269;-62
2021/11/11 16:36:46;;;;;;;20.15;16.92;;;3.90;99.90;;;;;;5033193;28;20594;-62
2021/11/11 16:39:14;;;;;;;22.65;14.82;;;3.90;99.90;;;;;;5033203;28;20194;-63
2021/11/11 16:41:40;;;;;;;18.27;12.80;;;3.90;99.90;;;;;;5032530;28;20184;-63
2021/11/11 16:44:07;;;;;;;17.63;13.57;;;3.90;99.90;;;;;;5031072;28;20212;-62
2021/11/11 16:46:35;;;;;;;21.38;13.85;;;3.90;99.90;;;;;;5030949;28;20263;-64